sensor_id;sensor_type;location;lat;lon;timestamp;temperature;humidity
34406;DHT22;20658;45.630;8.886;2023-02-15T00:01:05;4.90;73.10
34406;DHT22;20658;45.630;8.886;2023-02-15T00:03:41;4.80;72.90
34406;DHT22;20658;45.630;8.886;2023-02-15T00:06:14;4.80;73.00
34406;DHT22;20658;45.630;8.886;2023-02-15T00:08:48;4.50;73.00
34406;DHT22;20658;45.630;8.886;2023-02-15T00:11:21;4.70;73.00
34406;DHT22;20658;45.630;8.886;2023-02-15T00:14:11;4.70;73.10
34406;DHT22;20658;45.630;8.886;2023-02-15T00:16:46;4.70;73.10
34406;DHT22;20658;45.630;8.886;2023-02-15T00:19:22;5.10;73.30
34406;DHT22;20658;45.630;8.886;2023-02-15T00:21:56;4.70;73.00
34406;DHT22;20658;45.630;8.886;2023-02-15T00:24:29;4.70;72.90
34406;DHT22;20658;45.630;8.886;2023-02-15T00:27:02;4.70;73.00
34406;DHT22;20658;45.630;8.886;2023-02-15T00:29:35;4.70;73.00
34406;DHT22;20658;45.630;8.886;2023-02-15T00:32:09;4.70;72.80
34406;DHT22;20658;45.630;8.886;2023-02-15T00:34:43;4.70;72.60
34406;DHT22;20658;45.630;8.886;2023-02-15T00:37:16;4.70;72.50
34406;DHT22;20658;45.630;8.886;2023-02-15T00:39:50;4.70;72.30
34406;DHT22;20658;45.630;8.886;2023-02-15T00:42:23;4.80;72.00
34406;DHT22;20658;45.630;8.886;2023-02-15T00:44:56;4.70;71.80
34406;DHT22;20658;45.630;8.886;2023-02-15T00:47:30;4.90;71.80
34406;DHT22;20658;45.630;8.886;2023-02-15T00:50:06;4.70;72.00
34406;DHT22;20658;45.630;8.886;2023-02-15T00:52:40;4.70;72.00
34406;DHT22;20658;45.630;8.886;2023-02-15T00:55:13;4.70;72.00
34406;DHT22;20658;45.630;8.886;2023-02-15T00:57:47;4.60;72.00
34406;DHT22;20658;45.630;8.886;2023-02-15T01:00:20;4.60;72.00
34406;DHT22;20658;45.630;8.886;2023-02-15T01:02:55;4.60;71.90
34406;DHT22;20658;45.630;8.886;2023-02-15T01:05:30;4.60;71.90
34406;DHT22;20658;45.630;8.886;2023-02-15T01:08:04;4.60;71.90
34406;DHT22;20658;45.630;8.886;2023-02-15T01:10:33;4.60;72.00
34406;DHT22;20658;45.630;8.886;2023-02-15T01:13:08;4.60;72.10
34406;DHT22;20658;45.630;8.886;2023-02-15T01:15:41;4.60;72.10
34406;DHT22;20658;45.630;8.886;2023-02-15T01:18:15;4.50;72.20
34406;DHT22;20658;45.630;8.886;2023-02-15T01:20:50;4.50;72.50
34406;DHT22;20658;45.630;8.886;2023-02-15T01:23:23;4.50;72.40
34406;DHT22;20658;45.630;8.886;2023-02-15T01:26:01;4.50;72.30
34406;DHT22;20658;45.630;8.886;2023-02-15T01:28:35;4.50;72.30
34406;DHT22;20658;45.630;8.886;2023-02-15T01:31:09;4.50;72.40
34406;DHT22;20658;45.630;8.886;2023-02-15T01:33:45;4.50;72.50
34406;DHT22;20658;45.630;8.886;2023-02-15T01:36:20;4.40;72.40
34406;DHT22;20658;45.630;8.886;2023-02-15T01:38:53;4.40;73.00
34406;DHT22;20658;45.630;8.886;2023-02-15T01:41:26;4.40;73.30
34406;DHT22;20658;45.630;8.886;2023-02-15T01:44:01;4.40;73.10
34406;DHT22;20658;45.630;8.886;2023-02-15T01:46:39;4.40;72.80
34406;DHT22;20658;45.630;8.886;2023-02-15T01:49:16;4.40;72.70
34406;DHT22;20658;45.630;8.886;2023-02-15T01:51:52;4.40;72.50
34406;DHT22;20658;45.630;8.886;2023-02-15T01:54:29;4.40;72.60
34406;DHT22;20658;45.630;8.886;2023-02-15T01:57:05;4.30;72.50
34406;DHT22;20658;45.630;8.886;2023-02-15T01:59:43;4.30;72.40
34406;DHT22;20658;45.630;8.886;2023-02-15T02:02:19;4.30;72.50
34406;DHT22;20658;45.630;8.886;2023-02-15T02:04:59;4.30;72.40
34406;DHT22;20658;45.630;8.886;2023-02-15T02:07:42;4.20;72.70
34406;DHT22;20658;45.630;8.886;2023-02-15T02:10:19;4.20;72.90
34406;DHT22;20658;45.630;8.886;2023-02-15T02:13:00;4.20;73.20
34406;DHT22;20658;45.630;8.886;2023-02-15T02:15:45;4.20;73.60
34406;DHT22;20658;45.630;8.886;2023-02-15T02:18:35;4.20;73.30
34406;DHT22;20658;45.630;8.886;2023-02-15T02:21:48;4.10;73.60
34406;DHT22;20658;45.630;8.886;2023-02-15T02:28:35;4.00;74.30
34406;DHT22;20658;45.630;8.886;2023-02-15T02:31:43;4.00;74.40
34406;DHT22;20658;45.630;8.886;2023-02-15T02:34:29;4.00;74.20
34406;DHT22;20658;45.630;8.886;2023-02-15T02:37:11;4.00;74.00
34406;DHT22;20658;45.630;8.886;2023-02-15T02:39:51;4.30;74.20
34406;DHT22;20658;45.630;8.886;2023-02-15T02:42:35;4.00;74.00
34406;DHT22;20658;45.630;8.886;2023-02-15T02:45:12;4.00;74.00
34406;DHT22;20658;45.630;8.886;2023-02-15T02:47:50;4.00;74.00
34406;DHT22;20658;45.630;8.886;2023-02-15T02:50:26;3.90;74.00
34406;DHT22;20658;45.630;8.886;2023-02-15T02:53:01;3.90;74.00
34406;DHT22;20658;45.630;8.886;2023-02-15T02:55:31;3.90;74.00
34406;DHT22;20658;45.630;8.886;2023-02-15T02:58:09;3.80;73.90
34406;DHT22;20658;45.630;8.886;2023-02-15T03:00:49;3.80;73.90
34406;DHT22;20658;45.630;8.886;2023-02-15T03:03:30;3.80;73.90
34406;DHT22;20658;45.630;8.886;2023-02-15T03:06:10;3.80;73.90
34406;DHT22;20658;45.630;8.886;2023-02-15T03:08:54;3.70;73.90
34406;DHT22;20658;45.630;8.886;2023-02-15T03:11:31;3.70;74.20
34406;DHT22;20658;45.630;8.886;2023-02-15T03:14:04;3.70;74.20
34406;DHT22;20658;45.630;8.886;2023-02-15T03:16:40;3.70;74.50
34406;DHT22;20658;45.630;8.886;2023-02-15T03:19:17;3.70;74.40
34406;DHT22;20658;45.630;8.886;2023-02-15T03:21:56;4.00;74.80
34406;DHT22;20658;45.630;8.886;2023-02-15T03:24:56;3.60;74.70
34406;DHT22;20658;45.630;8.886;2023-02-15T03:27:33;3.60;74.60
34406;DHT22;20658;45.630;8.886;2023-02-15T03:30:12;3.60;74.90
34406;DHT22;20658;45.630;8.886;2023-02-15T03:32:47;3.50;75.20
34406;DHT22;20658;45.630;8.886;2023-02-15T03:35:24;3.50;75.20
34406;DHT22;20658;45.630;8.886;2023-02-15T03:38:01;3.50;75.80
34406;DHT22;20658;45.630;8.886;2023-02-15T03:40:38;3.50;75.70
34406;DHT22;20658;45.630;8.886;2023-02-15T03:43:36;3.50;75.70
34406;DHT22;20658;45.630;8.886;2023-02-15T03:46:15;3.50;76.00
34406;DHT22;20658;45.630;8.886;2023-02-15T03:48:54;3.50;75.80
34406;DHT22;20658;45.630;8.886;2023-02-15T03:51:32;3.50;75.60
34406;DHT22;20658;45.630;8.886;2023-02-15T03:54:10;3.50;75.30
34406;DHT22;20658;45.630;8.886;2023-02-15T03:56:45;3.50;75.50
34406;DHT22;20658;45.630;8.886;2023-02-15T03:59:38;3.50;75.50
34406;DHT22;20658;45.630;8.886;2023-02-15T04:02:42;3.50;75.50
34406;DHT22;20658;45.630;8.886;2023-02-15T04:05:20;3.50;75.60
34406;DHT22;20658;45.630;8.886;2023-02-15T04:07:54;3.40;75.50
34406;DHT22;20658;45.630;8.886;2023-02-15T04:10:29;3.40;75.90
34406;DHT22;20658;45.630;8.886;2023-02-15T04:13:31;3.40;75.80
34406;DHT22;20658;45.630;8.886;2023-02-15T04:16:04;3.40;76.10
34406;DHT22;20658;45.630;8.886;2023-02-15T04:18:39;3.30;75.90
34406;DHT22;20658;45.630;8.886;2023-02-15T04:21:31;3.30;75.60
34406;DHT22;20658;45.630;8.886;2023-02-15T04:24:22;3.40;76.00
34406;DHT22;20658;45.630;8.886;2023-02-15T04:27:14;3.20;75.50
34406;DHT22;20658;45.630;8.886;2023-02-15T04:29:47;3.20;75.60
34406;DHT22;20658;45.630;8.886;2023-02-15T04:32:21;3.10;75.40
34406;DHT22;20658;45.630;8.886;2023-02-15T04:34:54;3.40;75.70
34406;DHT22;20658;45.630;8.886;2023-02-15T04:37:27;3.10;75.50
34406;DHT22;20658;45.630;8.886;2023-02-15T04:40:01;3.30;75.70
34406;DHT22;20658;45.630;8.886;2023-02-15T04:42:36;3.10;76.10
34406;DHT22;20658;45.630;8.886;2023-02-15T04:45:09;3.40;76.20
34406;DHT22;20658;45.630;8.886;2023-02-15T04:47:43;3.00;76.00
34406;DHT22;20658;45.630;8.886;2023-02-15T04:50:16;3.00;76.10
34406;DHT22;20658;45.630;8.886;2023-02-15T04:52:53;3.00;76.40
34406;DHT22;20658;45.630;8.886;2023-02-15T04:55:26;2.90;76.10
34406;DHT22;20658;45.630;8.886;2023-02-15T04:58:01;3.10;76.20
34406;DHT22;20658;45.630;8.886;2023-02-15T05:00:34;2.90;76.10
34406;DHT22;20658;45.630;8.886;2023-02-15T05:03:08;2.90;76.10
34406;DHT22;20658;45.630;8.886;2023-02-15T05:05:41;2.90;76.20
34406;DHT22;20658;45.630;8.886;2023-02-15T05:08:15;2.90;76.60
34406;DHT22;20658;45.630;8.886;2023-02-15T05:10:49;2.90;76.80
34406;DHT22;20658;45.630;8.886;2023-02-15T05:13:23;3.10;76.80
34406;DHT22;20658;45.630;8.886;2023-02-15T05:15:57;3.20;76.80
34406;DHT22;20658;45.630;8.886;2023-02-15T05:18:30;3.10;76.90
34406;DHT22;20658;45.630;8.886;2023-02-15T05:21:03;2.70;76.90
34406;DHT22;20658;45.630;8.886;2023-02-15T05:23:37;2.80;77.20
34406;DHT22;20658;45.630;8.886;2023-02-15T05:26:17;2.70;77.20
34406;DHT22;20658;45.630;8.886;2023-02-15T05:29:10;2.70;77.20
34406;DHT22;20658;45.630;8.886;2023-02-15T05:31:44;2.90;77.80
34406;DHT22;20658;45.630;8.886;2023-02-15T05:34:18;3.00;78.10
34406;DHT22;20658;45.630;8.886;2023-02-15T05:36:52;2.80;78.10
34406;DHT22;20658;45.630;8.886;2023-02-15T05:39:25;2.70;78.00
34406;DHT22;20658;45.630;8.886;2023-02-15T05:41:58;2.90;78.00
34406;DHT22;20658;45.630;8.886;2023-02-15T05:44:33;2.90;78.00
34406;DHT22;20658;45.630;8.886;2023-02-15T05:47:06;2.60;77.60
34406;DHT22;20658;45.630;8.886;2023-02-15T05:49:35;2.60;78.00
34406;DHT22;20658;45.630;8.886;2023-02-15T05:52:08;2.60;78.20
34406;DHT22;20658;45.630;8.886;2023-02-15T05:54:43;2.70;78.00
34406;DHT22;20658;45.630;8.886;2023-02-15T05:57:17;2.60;77.90
34406;DHT22;20658;45.630;8.886;2023-02-15T05:59:51;2.60;78.30
34406;DHT22;20658;45.630;8.886;2023-02-15T06:02:24;2.60;78.00
34406;DHT22;20658;45.630;8.886;2023-02-15T06:04:58;2.60;78.10
34406;DHT22;20658;45.630;8.886;2023-02-15T06:07:31;2.80;78.10
34406;DHT22;20658;45.630;8.886;2023-02-15T06:10:06;2.60;78.10
34406;DHT22;20658;45.630;8.886;2023-02-15T06:12:39;2.60;78.50
34406;DHT22;20658;45.630;8.886;2023-02-15T06:15:14;2.80;78.50
34406;DHT22;20658;45.630;8.886;2023-02-15T06:17:47;2.70;78.40
34406;DHT22;20658;45.630;8.886;2023-02-15T06:20:21;2.90;78.20
34406;DHT22;20658;45.630;8.886;2023-02-15T06:22:54;2.50;78.10
34406;DHT22;20658;45.630;8.886;2023-02-15T06:25:27;2.60;78.10
34406;DHT22;20658;45.630;8.886;2023-02-15T06:28:00;2.60;78.10
34406;DHT22;20658;45.630;8.886;2023-02-15T06:30:35;2.50;78.30
34406;DHT22;20658;45.630;8.886;2023-02-15T06:33:08;2.60;78.20
34406;DHT22;20658;45.630;8.886;2023-02-15T06:35:42;2.70;78.30
34406;DHT22;20658;45.630;8.886;2023-02-15T06:38:15;2.60;78.30
34406;DHT22;20658;45.630;8.886;2023-02-15T06:40:49;2.60;78.30
34406;DHT22;20658;45.630;8.886;2023-02-15T06:43:22;2.60;78.40
34406;DHT22;20658;45.630;8.886;2023-02-15T06:45:57;2.60;78.30
34406;DHT22;20658;45.630;8.886;2023-02-15T06:48:30;2.60;77.90
34406;DHT22;20658;45.630;8.886;2023-02-15T06:51:03;2.90;77.80
34406;DHT22;20658;45.630;8.886;2023-02-15T06:53:36;2.70;77.80
34406;DHT22;20658;45.630;8.886;2023-02-15T06:56:10;3.00;77.70
34406;DHT22;20658;45.630;8.886;2023-02-15T06:58:44;2.70;77.20
34406;DHT22;20658;45.630;8.886;2023-02-15T07:01:22;2.80;77.10
34406;DHT22;20658;45.630;8.886;2023-02-15T07:03:55;2.80;76.90
34406;DHT22;20658;45.630;8.886;2023-02-15T07:06:31;2.90;77.00
34406;DHT22;20658;45.630;8.886;2023-02-15T07:09:04;3.00;77.00
34406;DHT22;20658;45.630;8.886;2023-02-15T07:11:37;3.00;76.80
34406;DHT22;20658;45.630;8.886;2023-02-15T07:14:28;3.30;77.20
34406;DHT22;20658;45.630;8.886;2023-02-15T07:17:03;3.20;77.00
34406;DHT22;20658;45.630;8.886;2023-02-15T07:19:36;3.20;76.90
34406;DHT22;20658;45.630;8.886;2023-02-15T07:22:09;3.30;76.50
34406;DHT22;20658;45.630;8.886;2023-02-15T07:24:42;3.30;76.20
34406;DHT22;20658;45.630;8.886;2023-02-15T07:27:15;3.40;76.00
34406;DHT22;20658;45.630;8.886;2023-02-15T07:29:49;3.50;75.60
34406;DHT22;20658;45.630;8.886;2023-02-15T07:32:23;3.60;75.10
34406;DHT22;20658;45.630;8.886;2023-02-15T07:34:58;3.70;74.80
34406;DHT22;20658;45.630;8.886;2023-02-15T07:37:32;3.80;74.10
34406;DHT22;20658;45.630;8.886;2023-02-15T07:40:06;3.90;73.80
34406;DHT22;20658;45.630;8.886;2023-02-15T07:42:40;4.00;73.10
34406;DHT22;20658;45.630;8.886;2023-02-15T07:45:13;4.10;72.80
34406;DHT22;20658;45.630;8.886;2023-02-15T07:47:48;4.30;72.20
34406;DHT22;20658;45.630;8.886;2023-02-15T07:50:21;4.40;71.80
34406;DHT22;20658;45.630;8.886;2023-02-15T07:52:54;4.50;71.90
34406;DHT22;20658;45.630;8.886;2023-02-15T07:55:28;4.60;71.40
34406;DHT22;20658;45.630;8.886;2023-02-15T07:58:01;4.80;70.60
34406;DHT22;20658;45.630;8.886;2023-02-15T08:00:34;4.90;69.90
34406;DHT22;20658;45.630;8.886;2023-02-15T08:03:29;5.00;69.00
34406;DHT22;20658;45.630;8.886;2023-02-15T08:06:02;5.20;68.70
34406;DHT22;20658;45.630;8.886;2023-02-15T08:08:36;5.40;68.30
34406;DHT22;20658;45.630;8.886;2023-02-15T08:11:16;5.50;67.80
34406;DHT22;20658;45.630;8.886;2023-02-15T08:14:06;5.70;67.30
34406;DHT22;20658;45.630;8.886;2023-02-15T08:16:41;5.90;66.70
34406;DHT22;20658;45.630;8.886;2023-02-15T08:19:19;6.10;66.40
34406;DHT22;20658;45.630;8.886;2023-02-15T08:21:55;6.30;64.40
34406;DHT22;20658;45.630;8.886;2023-02-15T08:24:31;6.50;64.40
34406;DHT22;20658;45.630;8.886;2023-02-15T08:27:08;6.60;63.50
34406;DHT22;20658;45.630;8.886;2023-02-15T08:29:42;6.90;63.00
34406;DHT22;20658;45.630;8.886;2023-02-15T08:32:15;7.00;61.90
34406;DHT22;20658;45.630;8.886;2023-02-15T08:34:51;7.20;61.20
34406;DHT22;20658;45.630;8.886;2023-02-15T08:37:24;7.40;60.60
34406;DHT22;20658;45.630;8.886;2023-02-15T08:39:57;7.60;60.00
34406;DHT22;20658;45.630;8.886;2023-02-15T08:42:32;7.70;59.00
34406;DHT22;20658;45.630;8.886;2023-02-15T08:45:06;8.10;58.20
34406;DHT22;20658;45.630;8.886;2023-02-15T08:47:40;8.00;58.20
34406;DHT22;20658;45.630;8.886;2023-02-15T08:50:14;8.30;57.60
34406;DHT22;20658;45.630;8.886;2023-02-15T08:52:48;8.40;56.70
34406;DHT22;20658;45.630;8.886;2023-02-15T08:55:21;8.70;55.60
34406;DHT22;20658;45.630;8.886;2023-02-15T08:57:54;8.70;54.80
34406;DHT22;20658;45.630;8.886;2023-02-15T09:00:28;8.90;53.80
34406;DHT22;20658;45.630;8.886;2023-02-15T09:03:03;9.00;53.20
34406;DHT22;20658;45.630;8.886;2023-02-15T09:05:38;9.40;54.10
34406;DHT22;20658;45.630;8.886;2023-02-15T09:08:11;9.50;54.50
34406;DHT22;20658;45.630;8.886;2023-02-15T09:10:44;9.80;54.30
34406;DHT22;20658;45.630;8.886;2023-02-15T09:13:17;9.60;53.90
34406;DHT22;20658;45.630;8.886;2023-02-15T09:15:50;9.80;54.00
34406;DHT22;20658;45.630;8.886;2023-02-15T09:18:34;10.10;53.40
34406;DHT22;20658;45.630;8.886;2023-02-15T09:21:11;10.30;52.30
34406;DHT22;20658;45.630;8.886;2023-02-15T09:23:47;10.50;51.60
34406;DHT22;20658;45.630;8.886;2023-02-15T09:26:23;10.60;51.20
34406;DHT22;20658;45.630;8.886;2023-02-15T09:28:59;10.90;51.50
34406;DHT22;20658;45.630;8.886;2023-02-15T09:31:38;10.80;50.90
34406;DHT22;20658;45.630;8.886;2023-02-15T09:34:14;10.90;51.20
34406;DHT22;20658;45.630;8.886;2023-02-15T09:36:50;10.90;50.90
34406;DHT22;20658;45.630;8.886;2023-02-15T09:39:25;11.10;50.80
34406;DHT22;20658;45.630;8.886;2023-02-15T09:42:30;11.30;50.70
34406;DHT22;20658;45.630;8.886;2023-02-15T09:45:26;11.50;49.90
34406;DHT22;20658;45.630;8.886;2023-02-15T09:48:18;11.50;49.70
34406;DHT22;20658;45.630;8.886;2023-02-15T09:51:12;11.80;49.20
34406;DHT22;20658;45.630;8.886;2023-02-15T09:54:22;12.10;49.00
34406;DHT22;20658;45.630;8.886;2023-02-15T09:57:07;12.30;48.40
34406;DHT22;20658;45.630;8.886;2023-02-15T09:59:52;12.40;47.90
34406;DHT22;20658;45.630;8.886;2023-02-15T10:02:50;12.60;47.70
34406;DHT22;20658;45.630;8.886;2023-02-15T10:05:40;12.70;47.20
34406;DHT22;20658;45.630;8.886;2023-02-15T10:08:40;12.60;46.90
34406;DHT22;20658;45.630;8.886;2023-02-15T10:11:52;12.60;47.30
34406;DHT22;20658;45.630;8.886;2023-02-15T10:14:52;12.90;47.00
34406;DHT22;20658;45.630;8.886;2023-02-15T10:18:05;13.00;46.60
34406;DHT22;20658;45.630;8.886;2023-02-15T10:20:54;13.20;45.80
34406;DHT22;20658;45.630;8.886;2023-02-15T10:23:41;13.40;46.00
34406;DHT22;20658;45.630;8.886;2023-02-15T10:26:21;13.30;45.60
34406;DHT22;20658;45.630;8.886;2023-02-15T10:29:02;13.30;45.40
34406;DHT22;20658;45.630;8.886;2023-02-15T10:31:45;13.30;45.70
34406;DHT22;20658;45.630;8.886;2023-02-15T10:34:25;13.30;45.60
34406;DHT22;20658;45.630;8.886;2023-02-15T10:37:22;13.40;45.30
34406;DHT22;20658;45.630;8.886;2023-02-15T10:40:11;13.70;44.90
34406;DHT22;20658;45.630;8.886;2023-02-15T10:43:07;14.10;44.40
34406;DHT22;20658;45.630;8.886;2023-02-15T10:45:53;14.10;43.70
34406;DHT22;20658;45.630;8.886;2023-02-15T10:48:59;14.10;42.60
34406;DHT22;20658;45.630;8.886;2023-02-15T10:51:46;14.00;41.80
34406;DHT22;20658;45.630;8.886;2023-02-15T10:54:34;14.20;42.20
34406;DHT22;20658;45.630;8.886;2023-02-15T10:57:15;14.30;41.90
34406;DHT22;20658;45.630;8.886;2023-02-15T11:00:02;14.50;42.20
34406;DHT22;20658;45.630;8.886;2023-02-15T11:03:14;14.60;41.90
34406;DHT22;20658;45.630;8.886;2023-02-15T11:06:02;14.90;42.60
34406;DHT22;20658;45.630;8.886;2023-02-15T11:08:39;15.50;42.60
34406;DHT22;20658;45.630;8.886;2023-02-15T11:11:19;15.40;42.40
34406;DHT22;20658;45.630;8.886;2023-02-15T11:13:58;15.20;41.70
34406;DHT22;20658;45.630;8.886;2023-02-15T11:16:37;15.30;41.80
34406;DHT22;20658;45.630;8.886;2023-02-15T11:19:16;15.30;41.80
34406;DHT22;20658;45.630;8.886;2023-02-15T11:21:57;15.40;41.10
34406;DHT22;20658;45.630;8.886;2023-02-15T11:24:29;15.50;40.70
34406;DHT22;20658;45.630;8.886;2023-02-15T11:27:19;15.60;40.70
34406;DHT22;20658;45.630;8.886;2023-02-15T11:29:57;15.80;40.50
34406;DHT22;20658;45.630;8.886;2023-02-15T11:32:35;15.90;40.10
34406;DHT22;20658;45.630;8.886;2023-02-15T11:35:20;16.30;39.80
34406;DHT22;20658;45.630;8.886;2023-02-15T11:38:03;16.20;39.70
34406;DHT22;20658;45.630;8.886;2023-02-15T11:40:43;16.40;39.50
34406;DHT22;20658;45.630;8.886;2023-02-15T11:43:23;16.40;39.30
34406;DHT22;20658;45.630;8.886;2023-02-15T11:45:59;16.20;39.20
34406;DHT22;20658;45.630;8.886;2023-02-15T11:48:32;16.20;39.40
34406;DHT22;20658;45.630;8.886;2023-02-15T11:51:11;16.20;39.00
34406;DHT22;20658;45.630;8.886;2023-02-15T11:53:48;16.30;39.10
34406;DHT22;20658;45.630;8.886;2023-02-15T11:56:23;16.30;38.10
34406;DHT22;20658;45.630;8.886;2023-02-15T11:59:03;16.50;38.40
34406;DHT22;20658;45.630;8.886;2023-02-15T12:01:42;16.50;38.40
34406;DHT22;20658;45.630;8.886;2023-02-15T12:04:21;16.50;38.10
34406;DHT22;20658;45.630;8.886;2023-02-15T12:07:02;16.60;38.20
34406;DHT22;20658;45.630;8.886;2023-02-15T12:09:47;16.60;38.30
34406;DHT22;20658;45.630;8.886;2023-02-15T12:12:25;16.60;37.40
34406;DHT22;20658;45.630;8.886;2023-02-15T12:15:01;16.50;37.70
34406;DHT22;20658;45.630;8.886;2023-02-15T12:17:39;16.70;38.00
34406;DHT22;20658;45.630;8.886;2023-02-15T12:20:21;16.90;38.00
34406;DHT22;20658;45.630;8.886;2023-02-15T12:23:03;17.00;36.80
34406;DHT22;20658;45.630;8.886;2023-02-15T12:25:39;16.90;37.10
34406;DHT22;20658;45.630;8.886;2023-02-15T12:28:24;17.10;37.30
34406;DHT22;20658;45.630;8.886;2023-02-15T12:31:01;16.90;36.20
34406;DHT22;20658;45.630;8.886;2023-02-15T12:33:39;16.90;35.80
34406;DHT22;20658;45.630;8.886;2023-02-15T12:36:18;16.90;36.20
34406;DHT22;20658;45.630;8.886;2023-02-15T12:39:18;17.10;36.40
34406;DHT22;20658;45.630;8.886;2023-02-15T12:42:02;17.20;36.20
34406;DHT22;20658;45.630;8.886;2023-02-15T12:44:37;17.20;34.90
34406;DHT22;20658;45.630;8.886;2023-02-15T12:47:18;17.00;35.00
34406;DHT22;20658;45.630;8.886;2023-02-15T12:50:22;16.90;35.60
34406;DHT22;20658;45.630;8.886;2023-02-15T12:53:07;17.00;35.90
34406;DHT22;20658;45.630;8.886;2023-02-15T12:55:55;17.20;36.20
34406;DHT22;20658;45.630;8.886;2023-02-15T12:58:31;17.40;36.00
34406;DHT22;20658;45.630;8.886;2023-02-15T13:01:13;17.50;35.90
34406;DHT22;20658;45.630;8.886;2023-02-15T13:03:57;17.60;36.00
34406;DHT22;20658;45.630;8.886;2023-02-15T13:06:34;17.60;35.80
34406;DHT22;20658;45.630;8.886;2023-02-15T13:09:14;17.60;36.00
34406;DHT22;20658;45.630;8.886;2023-02-15T13:11:50;17.60;34.80
34406;DHT22;20658;45.630;8.886;2023-02-15T13:14:28;17.50;34.70
34406;DHT22;20658;45.630;8.886;2023-02-15T13:17:04;17.40;34.80
34406;DHT22;20658;45.630;8.886;2023-02-15T13:19:41;17.30;35.20
34406;DHT22;20658;45.630;8.886;2023-02-15T13:22:20;17.40;34.60
34406;DHT22;20658;45.630;8.886;2023-02-15T13:24:57;17.40;35.70
34406;DHT22;20658;45.630;8.886;2023-02-15T13:27:36;17.40;35.80
34406;DHT22;20658;45.630;8.886;2023-02-15T13:30:25;17.50;35.60
34406;DHT22;20658;45.630;8.886;2023-02-15T13:33:04;17.60;36.00
34406;DHT22;20658;45.630;8.886;2023-02-15T13:35:44;17.60;36.30
34406;DHT22;20658;45.630;8.886;2023-02-15T13:38:37;17.70;36.40
34406;DHT22;20658;45.630;8.886;2023-02-15T13:41:20;17.70;36.70
34406;DHT22;20658;45.630;8.886;2023-02-15T13:44:07;17.80;36.70
34406;DHT22;20658;45.630;8.886;2023-02-15T13:46:55;17.80;36.70
34406;DHT22;20658;45.630;8.886;2023-02-15T13:49:46;17.80;36.70
34406;DHT22;20658;45.630;8.886;2023-02-15T13:52:26;17.80;37.60
34406;DHT22;20658;45.630;8.886;2023-02-15T13:55:21;17.70;38.00
34406;DHT22;20658;45.630;8.886;2023-02-15T13:58:14;17.80;38.00
34406;DHT22;20658;45.630;8.886;2023-02-15T14:01:10;17.60;37.70
34406;DHT22;20658;45.630;8.886;2023-02-15T14:03:56;17.60;37.90
34406;DHT22;20658;45.630;8.886;2023-02-15T14:07:02;17.60;37.90
34406;DHT22;20658;45.630;8.886;2023-02-15T14:10:06;17.70;38.00
34406;DHT22;20658;45.630;8.886;2023-02-15T14:12:58;17.70;38.00
34406;DHT22;20658;45.630;8.886;2023-02-15T14:15:54;17.70;37.80
34406;DHT22;20658;45.630;8.886;2023-02-15T14:18:38;17.60;37.40
34406;DHT22;20658;45.630;8.886;2023-02-15T14:21:18;17.50;37.90
34406;DHT22;20658;45.630;8.886;2023-02-15T14:24:02;17.60;37.70
34406;DHT22;20658;45.630;8.886;2023-02-15T14:26:48;17.60;37.40
34406;DHT22;20658;45.630;8.886;2023-02-15T14:29:27;17.60;37.50
34406;DHT22;20658;45.630;8.886;2023-02-15T14:32:09;17.40;37.50
34406;DHT22;20658;45.630;8.886;2023-02-15T14:34:50;17.30;37.60
34406;DHT22;20658;45.630;8.886;2023-02-15T14:37:38;17.20;37.70
34406;DHT22;20658;45.630;8.886;2023-02-15T14:40:22;17.30;38.20
34406;DHT22;20658;45.630;8.886;2023-02-15T14:43:27;17.30;38.10
34406;DHT22;20658;45.630;8.886;2023-02-15T14:46:10;17.30;38.00
34406;DHT22;20658;45.630;8.886;2023-02-15T14:48:50;17.20;37.70
34406;DHT22;20658;45.630;8.886;2023-02-15T14:51:54;17.10;37.70
34406;DHT22;20658;45.630;8.886;2023-02-15T14:54:52;17.10;38.00
34406;DHT22;20658;45.630;8.886;2023-02-15T14:57:30;17.10;38.30
34406;DHT22;20658;45.630;8.886;2023-02-15T15:00:30;17.10;38.20
34406;DHT22;20658;45.630;8.886;2023-02-15T15:03:21;17.00;38.10
34406;DHT22;20658;45.630;8.886;2023-02-15T15:05:57;17.00;38.40
34406;DHT22;20658;45.630;8.886;2023-02-15T15:08:34;17.00;38.20
34406;DHT22;20658;45.630;8.886;2023-02-15T15:11:39;17.00;38.50
34406;DHT22;20658;45.630;8.886;2023-02-15T15:14:40;16.90;38.50
34406;DHT22;20658;45.630;8.886;2023-02-15T15:20:44;16.80;38.50
34406;DHT22;20658;45.630;8.886;2023-02-15T15:23:39;16.70;38.40
34406;DHT22;20658;45.630;8.886;2023-02-15T15:26:29;16.70;38.50
34406;DHT22;20658;45.630;8.886;2023-02-15T15:29:06;16.60;38.50
34406;DHT22;20658;45.630;8.886;2023-02-15T15:31:47;16.50;38.70
34406;DHT22;20658;45.630;8.886;2023-02-15T15:34:57;16.40;38.80
34406;DHT22;20658;45.630;8.886;2023-02-15T15:37:51;16.40;38.70
34406;DHT22;20658;45.630;8.886;2023-02-15T15:40:42;16.30;38.70
34406;DHT22;20658;45.630;8.886;2023-02-15T15:44:09;16.20;38.80
34406;DHT22;20658;45.630;8.886;2023-02-15T15:47:22;16.20;39.20
34406;DHT22;20658;45.630;8.886;2023-02-15T15:50:11;16.10;39.20
34406;DHT22;20658;45.630;8.886;2023-02-15T15:52:49;16.00;39.20
34406;DHT22;20658;45.630;8.886;2023-02-15T15:55:26;16.00;39.50
34406;DHT22;20658;45.630;8.886;2023-02-15T15:58:04;15.90;39.50
34406;DHT22;20658;45.630;8.886;2023-02-15T16:00:42;15.80;39.60
34406;DHT22;20658;45.630;8.886;2023-02-15T16:03:21;15.80;40.00
34406;DHT22;20658;45.630;8.886;2023-02-15T16:05:56;15.70;40.10
34406;DHT22;20658;45.630;8.886;2023-02-15T16:08:35;15.60;40.30
34406;DHT22;20658;45.630;8.886;2023-02-15T16:11:13;15.60;40.20
34406;DHT22;20658;45.630;8.886;2023-02-15T16:13:50;15.50;40.40
34406;DHT22;20658;45.630;8.886;2023-02-15T16:16:26;15.40;40.40
34406;DHT22;20658;45.630;8.886;2023-02-15T16:19:01;15.30;40.80
34406;DHT22;20658;45.630;8.886;2023-02-15T16:21:37;15.10;40.90
34406;DHT22;20658;45.630;8.886;2023-02-15T16:24:26;15.00;41.10
34406;DHT22;20658;45.630;8.886;2023-02-15T16:27:32;14.90;41.50
34406;DHT22;20658;45.630;8.886;2023-02-15T16:30:28;14.80;41.90
34406;DHT22;20658;45.630;8.886;2023-02-15T16:33:05;14.70;42.10
34406;DHT22;20658;45.630;8.886;2023-02-15T16:35:41;14.50;42.30
34406;DHT22;20658;45.630;8.886;2023-02-15T16:38:47;14.60;42.30
34406;DHT22;20658;45.630;8.886;2023-02-15T16:41:38;14.20;42.40
34406;DHT22;20658;45.630;8.886;2023-02-15T16:44:18;14.10;42.60
34406;DHT22;20658;45.630;8.886;2023-02-15T16:46:54;13.90;43.20
34406;DHT22;20658;45.630;8.886;2023-02-15T16:49:28;13.80;43.40
34406;DHT22;20658;45.630;8.886;2023-02-15T16:52:04;13.70;43.70
34406;DHT22;20658;45.630;8.886;2023-02-15T16:54:41;13.60;44.10
34406;DHT22;20658;45.630;8.886;2023-02-15T16:57:19;13.50;44.40
34406;DHT22;20658;45.630;8.886;2023-02-15T16:59:56;13.40;44.70
34406;DHT22;20658;45.630;8.886;2023-02-15T17:02:34;13.20;44.80
34406;DHT22;20658;45.630;8.886;2023-02-15T17:05:15;13.30;45.20
34406;DHT22;20658;45.630;8.886;2023-02-15T17:08:05;13.00;45.50
34406;DHT22;20658;45.630;8.886;2023-02-15T17:10:46;13.10;45.90